Morteza Vafaei

Chief Scout - Tractor
13 Feb 2028
Sunday
Process

Personality

Adaptability (9) Ambition (6) Controversy (18) Loyalty (17) Pressure (6) Professionalism (5) Sportsmanship (14) Temperament (3)

Profile

Coaching Style Democratic
License Continental Pro
Determination 6
Man Management 5
Motivating 10
Discipline 5
Job Satisfaction
90%
Fatigue
0%
Role Chief Scout
Wage 15.2K p/w
Contract 14.03.2030

Performance

Behaviour Good
Training Effectiveness
20%
Player Development
45%
Injury Prevention
25%
Tactical Implementation
20%

Recent Events

Assessed a player now
Assessed a player now
Attended a recruitment meeting now
Attended a recruitment meeting now
Recommended a transfer target now
Assessed a player now
Assessed a player now
Assessed a player 7d ago

Currently Monitoring

220
Player Club Status Ability Confidence Watched Last Observed Latest Vote
Karlan Grant Tranmere Rovers Active 141 / 134 40% 1 12.02.2028 -
Aune Heggebø West Bromwich Albion Active 115 / 139 40% 1 12.02.2028 -
Manfred Ugalde Spartak Moscow Active 151 / 134 40% 1 11.02.2028 -
Brandon Thomas-Asante Blackpool Active 117 / 115 40% 1 11.02.2028 -
Sam Greenwood Bristol City Active 146 / 121 40% 3 09.02.2028 -
Callum O'Hare Sheffield United Active 137 / 144 40% 1 09.02.2028 -
Zito Luvumbo Cagliari Active 153 / 132 40% 1 08.02.2028 -
Zeki Amdouni Luton Town Active 125 / 133 40% 1 08.02.2028 -
Facundo Batista Penarol Active 130 / 117 40% 2 07.02.2028 -
Daichi Kamada Luton Town Active 146 / 154 40% 1 07.02.2028 -
Jhon Solís Birmingham Active 152 / 134 40% 1 07.02.2028 -
Arthur Sales Maritzburg United Active 136 / 116 40% 1 07.02.2028 -
Igor Burnley Active 144 / 154 40% 1 04.02.2028 -
Loïc Williams Colorado Rapids Active 143 / 138 40% 1 04.02.2028 -
Victor Torp Bristol Rovers Active 147 / 136 40% 1 03.02.2028 -
Timothy Castagne Stoke City Active 124 / 139 40% 1 03.02.2028 -
Tyler Adams Bournemouth Active 141 / 166 40% 1 02.02.2028 -
Max Arfsten Middlesbrough Active 136 / 122 40% 1 02.02.2028 -
Alexander Díaz Deportivo Riestra Lost 121 / 123 40% 1 31.01.2028 -
Dor Turgeman Rubin Active 144 / 123 40% 1 31.01.2028 -
Armstrong Oko-Flex Levski Lost 138 / 126 40% 1 25.01.2028 -
Ollie Watkins Al-Hilal Active 156 / 150 40% 1 25.01.2028 -
Emiliano Álvarez Progreso Lost 133 / 116 40% 4 18.01.2028 -
Agustín Dattola Almirante Brown Lost 120 / 116 40% 1 18.01.2028 -
Alan García Wanderers Active 120 / 110 40% 1 10.01.2028 -
Joaquín García Vélez Active 121 / 130 40% 1 10.01.2028 -
Hossein Sadeghi Malavan Active 107 / 100 55% 1 07.01.2028 -
Daniel Barrea Godoy Cruz Lost 127 / 124 40% 2 02.01.2028 -
Saeid Pouraliganji Rah Ahan Lost 109 / 109 66% 1 01.01.2028 Approve
Saeid Sadeghi Ittihad Active 109 / 109 67% 1 01.01.2028 Approve
Tiago Palacios Estudiantes Active 126 / 125 40% 1 30.12.2027 -
Joseph Paintsil LA Galaxy Active 145 / 137 40% 7 29.12.2027 -
Alexis Cuello San Lorenzo Active 133 / 124 40% 1 29.12.2027 -
Oscar Garrido Mitre Active 121 / 111 40% 3 28.12.2027 -
Alex Luna Instituto Active 133 / 128 40% 4 27.12.2027 -
Santiago Montiel Independiente Active 135 / 134 40% 6 27.12.2027 -
Iñaki Larthirigoyen San Telmo Active 115 / 116 40% 10 25.12.2027 -
Victor Hernandez Santa Fe Active 125 / 125 40% 3 24.12.2027 -
Facundo Altamira Godoy Cruz Active 135 / 128 40% 5 23.12.2027 -
Franco Zapiola Platense Active 137 / 127 40% 1 23.12.2027 -
Patricio Moyano Defensores Active 128 / 120 40% 6 22.12.2027 -
Jhonatan Candia Barracas Central Active 119 / 123 40% 3 22.12.2027 -
Håkon Evjen Bodo/Glimt Active 124 / 138 40% 2 21.12.2027 -
Sebastián Jaurena San Martín SJ Active 117 / 113 40% 2 19.12.2027 -
Gastón Togni Defensa y Justicia Active 121 / 129 40% 2 19.12.2027 -
Nicolás Laméndola Atlético Tucumán Active 126 / 115 40% 1 18.12.2027 -
Matías Vargas Gimnasia y Esgrima Active 137 / 127 40% 1 17.12.2027 -
Martín Campos Ferro Carril Oeste Active 118 / 120 40% 2 14.12.2027 -
Manuel Mónaco Sarmiento Active 115 / 118 40% 5 11.12.2027 -
Leandro Suhr Boston River Active 110 / 122 40% 2 10.12.2027 -
Hernán Toledo Albion Active 124 / 115 40% 3 09.12.2027 -
Xavier Biscayzacú Defensor Sporting Active 122 / 129 40% 6 06.12.2027 -
Alejo Dramisino Atlanta Active 124 / 115 40% 3 06.12.2027 -
Esteban Obregón Montevideo City Torque Active 126 / 115 40% 3 04.12.2027 -
Lucas Souto Defensa y Justicia Active 118 / 124 40% 2 04.12.2027 -
Santiago Rosales Mitre Active 117 / 112 40% 2 03.12.2027 -
Ignacio Perruzzi San Lorenzo Active 133 / 134 40% 1 03.12.2027 -
Lucas Carrizo Newell's Old Boys Active 136 / 122 40% 1 03.12.2027 -
Nicolás Retamar Ferro Carril Oeste Active 127 / 119 40% 4 01.12.2027 -
Riqui Puig LA Galaxy Active 151 / 128 40% 1 01.12.2027 -
Alejo Cruz Juventud Active 132 / 116 40% 3 29.11.2027 -
Bruno Larregui Juventud Active 121 / 118 40% 2 28.11.2027 -
Juan Bisanz Huracán Active 136 / 132 40% 4 26.11.2027 -
Jherson Mosquera Newell's Old Boys Active 127 / 123 40% 1 25.11.2027 -
Adrian Pereira Rosenborg Active 119 / 128 40% 1 25.11.2027 -
Sebastián Medina Tigre Active 116 / 116 40% 1 23.11.2027 -
Fabricio Corbalán Gimnasia La Plata Active 115 / 127 40% 1 22.11.2027 -
Santiago González Tigre Active 130 / 126 40% 1 21.11.2027 -
Fernando Martínez Central Córdoba SdE Active 127 / 124 40% 2 17.11.2027 -
Jens Petter Hauge Bodo/Glimt Active 130 / 144 40% 1 17.11.2027 -
Rodrigo Herrera Newell's Old Boys Active 118 / 121 40% 1 17.11.2027 -
Emanuel Mammana Vélez Active 140 / 133 40% 1 16.11.2027 -
Hernán de la Fuente Instituto Active 115 / 124 40% 1 12.11.2027 -
Juan Infante Atlético Tucumán Active 123 / 117 40% 1 12.11.2027 -
Giorgi Arabidze Torpedo Kutaisi Active 102 / 116 40% 4 11.11.2027 -
Gastón Lodico Racing Club Active 121 / 122 40% 1 11.11.2027 -
Augusto Schott Talleres Active 134 / 129 40% 1 08.11.2027 -
Emil Breivik Molde Active 134 / 132 40% 1 08.11.2027 -
Imran Oulad Omar Dinamo Batumi Active 133 / 126 40% 1 06.11.2027 -
Matías Zaracho Racing Club Active 125 / 126 40% 2 05.11.2027 -
Aarón Molinas Defensa y Justicia Active 125 / 124 40% 3 31.10.2027 -
Elías Báez Atlanta United FC Active 142 / 136 40% 2 29.10.2027 -
Jonás Acevedo Instituto Active 129 / 117 40% 1 27.10.2027 -
Bruno Leyes Godoy Cruz Active 135 / 129 40% 2 24.10.2027 -
Jonás Luna Wanderers Active 120 / 127 40% 1 23.10.2027 -
Joel Ezra Enyimba Active 97 / 106 40% 1 17.10.2027 -
Ronald Hernández Portland Timbers Active 103 / 119 40% 1 17.10.2027 -
Joaquín Gho Argentinos Juniors Active 119 / 127 40% 1 14.10.2027 -
Marcelino Moreno Lanús Active 136 / 132 40% 1 14.10.2027 -
Antonio Galeano Remo Stars Active 115 / 120 40% 3 12.10.2027 -
Luis Rodriguez Valur Active 133 / 117 40% 1 08.10.2027 -
Diego García Danubio Active 128 / 120 40% 2 07.10.2027 -
Luciano Boggio Nacional Active 122 / 125 40% 3 06.10.2027 -
Oussama Idrissi AIK Active 159 / 141 40% 1 06.10.2027 -
Rodrigo González Mitre Active 108 / 114 40% 1 04.10.2027 -
Ignacio Fernández Boston River Active 100 / 97 40% 1 04.10.2027 -
Matías Canedo Rampla Juniors Active 86 / 95 40% 1 04.10.2027 -
Mateusz Bogusz Houston Dynamo Active 129 / 139 40% 1 29.09.2027 -
Federico Bisanz Atlanta Active 107 / 112 40% 1 28.09.2027 -
Federico Pérez Agropecuario Argentino Active 106 / 113 40% 1 25.09.2027 -
Ramiro Peralta Juventud Active 128 / 115 40% 1 15.09.2027 -
Franco Nicola Liverpool Montevideo Active 127 / 124 40% 1 30.08.2027 -
Joel Bagan Cardiff City Active 134 / 125 40% 1 09.08.2027 -
Idris El Mizouni Leyton Orient Active 138 / 123 40% 1 09.08.2027 -
Ali Ahmed Norwich City Active 141 / 117 40% 1 06.08.2027 -
Louie Barry Sheffield Wednesday Active 126 / 134 40% 2 04.08.2027 -
Daniel Kyerewaa Reading Active 134 / 123 40% 2 03.08.2027 -
Alex Robertson Cardiff City Active 139 / 115 40% 1 03.08.2027 -
Jacques Ekomié Wrexham Active 142 / 125 40% 1 02.08.2027 -
Andrea Bertoncini Triestina Active 81 / 88 40% 1 01.07.2027 -
Francis Gomez Cardiff City Active 104 / 106 40% 1 01.07.2027 -
Lorent Tolaj Plymouth Argyle Active 116 / 128 40% 1 21.06.2027 -
Che Adams Torino Active 151 / 131 40% 1 21.06.2027 -
Nestory Irankunda Watford Active 113 / 127 40% 1 03.06.2027 -
Caleb Yirenkyi Coventry City Active 136 / 130 40% 1 03.06.2027 -
Alex Villa González Atlético Tucumán Active 79 / 94 40% 3 30.05.2027 -
Román Colo All Boys Active 82 / 89 40% 2 26.05.2027 -
Roberto Moreno Cruz Azul Active 74 / 88 40% 1 25.05.2027 -
Mathías Aguiar Montevideo City Torque Active 71 / 95 40% 1 25.05.2027 -
Agustín Nogueira Barracas Central Active 81 / 95 40% 2 22.05.2027 -
Saúl Durán River Plate Active 87 / 90 40% 1 22.05.2027 -
Riley Owen Stevenage Active 96 / 110 40% 1 22.05.2027 -
Tommaso Cecotti Carpi Active 80 / 98 40% 1 22.05.2027 -
Lautaro Cueli San Lorenzo Active 102 / 99 40% 4 19.05.2027 -
Max Kerkvliet Real Salt Lake Active 91 / 93 40% 3 18.05.2027 -
Will Murdock Manchester United Active 99 / 92 40% 1 18.05.2027 -
Juan González Atlético Tucumán Active 86 / 99 40% 2 17.05.2027 -
Kiani Inge Groningen Active 91 / 105 40% 3 15.05.2027 -
Juan Manuel Centurión Independiente Active 93 / 99 40% 2 15.05.2027 -
Bailey Hall Liverpool Active 70 / 83 40% 1 15.05.2027 -
Tiago Freitas Benfica Active 121 / 105 40% 1 13.05.2027 -
Joaquín Sevegnani Colegiales Active 93 / 97 40% 2 12.05.2027 -
Jakub Badžgoň MSK Zilina Active 119 / 110 40% 4 12.05.2027 Monitor
Josh Acheampong Everton Active 154 / 138 40% 1 09.05.2027 -
Samuele di Benedetto Twente Active 113 / 120 40% 1 09.05.2027 -
Joaquín Giudice Platense Active 84 / 97 40% 1 08.05.2027 -
Gonçalo Ribeiro Porto Active 83 / 109 40% 5 06.05.2027 -
Salvador Blopá Sporting CP Active 103 / 113 40% 3 06.05.2027 -
Felipe Igón Racing Club Active 87 / 103 40% 5 04.05.2027 -
Julián Alcar Banfield Active 89 / 92 40% 2 03.05.2027 -
Grant Leveille DC United Active 70 / 103 40% 1 01.05.2027 -
Jeifer Nontoa Banfield Active 80 / 90 40% 2 30.04.2027 -
César Bravo Barranquilla Active 80 / 89 40% 1 29.04.2027 -
Finn Jeltsch VfB Stuttgart Active 136 / 131 40% 3 28.04.2027 -
Agustín Ayala Gimnasia La Plata Active 80 / 96 40% 1 28.04.2027 -
Luke Campbell Bolton Wanderers Active 102 / 103 40% 1 25.04.2027 -
Sebastián Hurtado Aalborg Active 98 / 86 40% 1 24.04.2027 -
Dante Jadli Temperley Active 74 / 86 40% 1 23.04.2027 -
Carlos Hernández Deportivo Riestra Active 77 / 94 40% 2 22.04.2027 -
Joel Abregu Temperley Active 69 / 87 40% 1 19.04.2027 -
Esteban Ojeda Estudiantes Active 78 / 81 40% 1 18.04.2027 -
Luca Martelli Forli Active 84 / 89 40% 1 16.04.2027 -
Ivan Giraldo Valencia Active 116 / 123 40% 2 13.04.2027 -
Federico Bonilla River Plate Active 86 / 98 40% 2 09.04.2027 -
Edwin Asamoah Berekum Chelsea Active 76 / 77 40% 1 09.04.2027 -
James Dornelly Peterborough United Active 97 / 118 40% 1 07.04.2027 -
Afriyie Sulemana WAFA Active 78 / 102 40% 1 06.04.2027 -
Jeremías Robledo Acosta Newell's Old Boys Active 93 / 95 40% 3 03.04.2027 -
Patricio Flores Defensa y Justicia Active 77 / 96 40% 1 03.04.2027 -
Santiago Direnna Miramar Misiones Active 84 / 78 40% 1 01.04.2027 -
Lisandro Musso Central Córdoba SdE Active 88 / 92 40% 1 31.03.2027 -
Ikenna Nkwazema FC Diarra Active 66 / 77 40% 1 25.03.2027 -
Duran Ferree San Diego Football Club Active 108 / 95 40% 2 18.03.2027 -
Franco Capponi Aldosivi Active 83 / 102 40% 2 17.03.2027 -
Stefano Condino All Boys Active 79 / 87 40% 1 11.03.2027 -
Leonardo Sosa Rosario Central Active 94 / 105 40% 2 09.03.2027 -
Emanuel Bonda Argentinos Juniors Active 81 / 98 40% 1 09.03.2027 -
Thiago Nahuel Independiente Active 94 / 86 40% 2 08.03.2027 -
David Ozoh Derby County Active 109 / 137 40% 2 06.03.2027 -
Germán Barbas Burgos Active 91 / 117 40% 1 06.03.2027 -
Dmitry Pestryakov Krasnodar Active 99 / 110 40% 1 05.03.2027 -
Teboho Mokoena Black Aces Active 69 / 84 40% 1 03.03.2027 -
Jhon Azcárate Slask Active 67 / 92 40% 1 01.01.2027 -
Bongani Zungu Ajax Cape Town Active 122 / 130 40% 3 28.12.2026 -
Naphtali Mokoena Bloemfontein Celtic Active 98 / 88 40% 1 28.12.2026 -
Reda Khadra Qarabag Active 143 / 128 40% 1 28.12.2026 -
Oscar Destiny Barau Active 80 / 92 40% 3 26.12.2026 -
Zoltan Kleinheisler Haladas Active 94 / 103 40% 3 25.12.2026 -
Santiago Gutiérrez Puskas Akademia Active 83 / 101 40% 1 24.12.2026 -
Andy Ezekiel Petrojet Active 78 / 105 40% 1 23.12.2026 -
Ignacio Abarza Huracán Active 93 / 98 40% 2 22.12.2026 -
Maxim Shichanin Zenit Active 97 / 83 40% 3 18.12.2026 -
Guilherme Pires Sporting CP Active 80 / 98 40% 2 17.12.2026 -
Favour Bala Plateau United Active 80 / 103 40% 1 16.12.2026 -
Álex Centelles Levski Active 131 / 119 40% 2 15.12.2026 -
Sergey Pinyaev Lokomotiv Moscow Active 118 / 125 40% 1 15.12.2026 -
Sabino González Sarmiento Active 75 / 90 40% 3 10.12.2026 -
Jerónimo Gutiérrez Independiente Rivadavia Active 84 / 92 40% 1 05.12.2026 -
Ehsan Shojaei Gostaresh Foulad Active 78 / 93 40% 1 02.12.2026 -
Juan Ignacio Berasi Colón Active 81 / 87 40% 1 28.11.2026 -
Oswin Appollis Orlando Pirates Active 109 / 130 40% 1 25.11.2026 -
Franco Yennerich Talleres Active 80 / 87 40% 1 25.11.2026 -
Tomás Chetelain Estudiantes Active 92 / 87 40% 1 24.11.2026 -
Ayoub Akabou Ceuta Active 98 / 85 40% 2 20.11.2026 -
Gerardo Díaz San Martín SJ Active 86 / 99 40% 1 19.11.2026 -
Joel Abraham Boston River Active 77 / 91 40% 2 16.11.2026 -
Benicio Romero Racing Club Active 84 / 86 40% 1 16.11.2026 -
Fabricio Díaz San Lorenzo Active 91 / 100 40% 1 15.11.2026 -
João Félix Dinamo Moscow Active 154 / 145 40% 1 11.11.2026 -
Ashkan Rashedi Zob Ahan Active 105 / 93 40% 2 06.11.2026 -
Ammar Ramadan DAC Dunajska Streda Active 124 / 134 40% 1 30.10.2026 -
Ole-Didrik Blomberg Bodo/Glimt Active 135 / 127 40% 1 29.10.2026 -
Mohammad Mehdi Mohebi Persepolis Active 129 / 118 40% 2 26.10.2026 Needs More Info
Martín D'Aurizio Huracán Active 94 / 95 40% 1 22.10.2026 -
Kamil Dudek Burton Albion Active 100 / 85 40% 1 22.10.2026 -
Tyrhys Dolan Espanyol Active 131 / 143 40% 1 22.10.2026 -
Aria Yousefi Sepahan Active 123 / 114 40% 1 21.10.2026 -
Facundo Di Sibio Agropecuario Argentino Active 90 / 90 40% 1 17.10.2026 -
Emiliano Zacca Deportivo Riestra Active 85 / 100 40% 1 15.10.2026 -
Martín Díaz Lanús Active 88 / 84 40% 1 14.10.2026 -
Nikita Krivtsov Krasnodar Active 126 / 123 40% 1 12.10.2026 -
Bradley Zwane SuperSport United Active 113 / 123 40% 1 08.10.2026 -
Kein Sato FC Tokyo Active 146 / 128 40% 1 08.10.2026 -
Agustín Martínez Cádiz Active 98 / 88 40% 1 08.10.2026 -
Agustín Albrini Independiente Rivadavia Active 82 / 95 40% 2 02.10.2026 -
Sebastián Miño Patronato Active 89 / 83 40% 1 22.09.2026 -
Kayne Rizvanovich Minnesota United FC Active 92 / 85 40% 1 22.09.2026 -
Saeid Saharkhizan Sepahan Active 102 / 119 40% 1 25.08.2026 -
Rouzbeh Cheshmi Esteghlal Active 130 / 122 51% 1 24.08.2026 -
Joe Gelhardt Hull City Active 143 / 124 40% 1 01.08.2026 -